sensor_id;sensor_type;location;lat;lon;timestamp;P1;durP1;ratioP1;P2;durP2;ratioP2
16385;SDS011;8302;51.154;4.456;2024-02-21T00:00:40;4.28;;;1.80;;
16385;SDS011;8302;51.154;4.456;2024-02-21T00:03:08;4.00;;;1.60;;
16385;SDS011;8302;51.154;4.456;2024-02-21T00:05:36;5.38;;;1.48;;
16385;SDS011;8302;51.154;4.456;2024-02-21T00:08:04;2.15;;;1.10;;
16385;SDS011;8302;51.154;4.456;2024-02-21T00:10:32;9.02;;;1.83;;
16385;SDS011;8302;51.154;4.456;2024-02-21T00:13:00;3.38;;;1.27;;
16385;SDS011;8302;51.154;4.456;2024-02-21T00:15:29;9.07;;;1.52;;
16385;SDS011;8302;51.154;4.456;2024-02-21T00:17:57;3.67;;;1.40;;
16385;SDS011;8302;51.154;4.456;2024-02-21T00:20:25;2.65;;;1.27;;
16385;SDS011;8302;51.154;4.456;2024-02-21T00:22:53;3.47;;;0.88;;
16385;SDS011;8302;51.154;4.456;2024-02-21T00:25:21;2.38;;;1.45;;
16385;SDS011;8302;51.154;4.456;2024-02-21T00:27:49;2.65;;;1.52;;
16385;SDS011;8302;51.154;4.456;2024-02-21T00:30:17;2.25;;;1.33;;
16385;SDS011;8302;51.154;4.456;2024-02-21T00:32:46;4.25;;;1.77;;
16385;SDS011;8302;51.154;4.456;2024-02-21T00:35:14;4.97;;;1.50;;
16385;SDS011;8302;51.154;4.456;2024-02-21T00:37:41;2.45;;;1.38;;
16385;SDS011;8302;51.154;4.456;2024-02-21T00:40:10;0.90;;;0.90;;
16385;SDS011;8302;51.154;4.456;2024-02-21T00:42:37;3.00;;;1.30;;
16385;SDS011;8302;51.154;4.456;2024-02-21T00:45:06;6.65;;;1.75;;
16385;SDS011;8302;51.154;4.456;2024-02-21T00:47:34;6.18;;;1.48;;
16385;SDS011;8302;51.154;4.456;2024-02-21T00:50:04;2.00;;;1.10;;
16385;SDS011;8302;51.154;4.456;2024-02-21T00:52:36;2.20;;;1.05;;
16385;SDS011;8302;51.154;4.456;2024-02-21T00:55:04;2.55;;;1.02;;
16385;SDS011;8302;51.154;4.456;2024-02-21T00:57:31;1.52;;;1.15;;
16385;SDS011;8302;51.154;4.456;2024-02-21T00:59:59;2.63;;;1.17;;
16385;SDS011;8302;51.154;4.456;2024-02-21T01:02:27;2.15;;;1.05;;
16385;SDS011;8302;51.154;4.456;2024-02-21T01:04:57;5.80;;;2.13;;
16385;SDS011;8302;51.154;4.456;2024-02-21T01:07:26;2.00;;;1.30;;
16385;SDS011;8302;51.154;4.456;2024-02-21T01:09:54;5.03;;;1.33;;
16385;SDS011;8302;51.154;4.456;2024-02-21T01:12:22;1.92;;;1.17;;
16385;SDS011;8302;51.154;4.456;2024-02-21T01:14:50;3.00;;;2.00;;
16385;SDS011;8302;51.154;4.456;2024-02-21T01:17:18;2.63;;;1.40;;
16385;SDS011;8302;51.154;4.456;2024-02-21T01:19:46;1.80;;;1.15;;
16385;SDS011;8302;51.154;4.456;2024-02-21T01:22:13;4.03;;;1.38;;
16385;SDS011;8302;51.154;4.456;2024-02-21T01:24:43;2.28;;;0.95;;
16385;SDS011;8302;51.154;4.456;2024-02-21T01:27:11;4.00;;;1.65;;
16385;SDS011;8302;51.154;4.456;2024-02-21T01:29:39;3.75;;;1.20;;
16385;SDS011;8302;51.154;4.456;2024-02-21T01:32:07;3.83;;;1.45;;
16385;SDS011;8302;51.154;4.456;2024-02-21T01:34:35;7.65;;;1.65;;
16385;SDS011;8302;51.154;4.456;2024-02-21T01:37:04;1.55;;;0.93;;
16385;SDS011;8302;51.154;4.456;2024-02-21T01:39:33;1.77;;;1.38;;
16385;SDS011;8302;51.154;4.456;2024-02-21T01:42:03;1.73;;;1.25;;
16385;SDS011;8302;51.154;4.456;2024-02-21T01:44:31;3.25;;;1.52;;
16385;SDS011;8302;51.154;4.456;2024-02-21T01:46:59;1.92;;;1.35;;
16385;SDS011;8302;51.154;4.456;2024-02-21T01:49:27;1.95;;;1.50;;
16385;SDS011;8302;51.154;4.456;2024-02-21T01:51:55;6.03;;;1.33;;
16385;SDS011;8302;51.154;4.456;2024-02-21T01:54:22;3.22;;;1.60;;
16385;SDS011;8302;51.154;4.456;2024-02-21T01:56:50;1.17;;;1.08;;
16385;SDS011;8302;51.154;4.456;2024-02-21T01:59:20;4.57;;;1.98;;
16385;SDS011;8302;51.154;4.456;2024-02-21T02:01:49;2.15;;;1.45;;
16385;SDS011;8302;51.154;4.456;2024-02-21T02:04:17;4.22;;;1.60;;
16385;SDS011;8302;51.154;4.456;2024-02-21T02:06:46;2.13;;;1.10;;
16385;SDS011;8302;51.154;4.456;2024-02-21T02:09:13;2.40;;;1.48;;
16385;SDS011;8302;51.154;4.456;2024-02-21T02:11:42;1.38;;;1.10;;
16385;SDS011;8302;51.154;4.456;2024-02-21T02:14:10;4.85;;;1.50;;
16385;SDS011;8302;51.154;4.456;2024-02-21T02:16:39;3.20;;;1.35;;
16385;SDS011;8302;51.154;4.456;2024-02-21T02:19:07;2.05;;;1.63;;
16385;SDS011;8302;51.154;4.456;2024-02-21T02:21:39;3.97;;;2.10;;
16385;SDS011;8302;51.154;4.456;2024-02-21T02:24:09;2.65;;;1.48;;
16385;SDS011;8302;51.154;4.456;2024-02-21T02:26:36;3.22;;;0.95;;
16385;SDS011;8302;51.154;4.456;2024-02-21T02:29:05;2.47;;;1.02;;
16385;SDS011;8302;51.154;4.456;2024-02-21T02:31:32;4.05;;;1.50;;
16385;SDS011;8302;51.154;4.456;2024-02-21T02:34:00;3.80;;;1.40;;
16385;SDS011;8302;51.154;4.456;2024-02-21T02:36:29;2.58;;;1.27;;
16385;SDS011;8302;51.154;4.456;2024-02-21T02:38:57;4.60;;;1.45;;
16385;SDS011;8302;51.154;4.456;2024-02-21T02:41:26;2.10;;;1.45;;
16385;SDS011;8302;51.154;4.456;2024-02-21T02:43:54;3.55;;;1.48;;
16385;SDS011;8302;51.154;4.456;2024-02-21T02:46:21;2.13;;;1.23;;
16385;SDS011;8302;51.154;4.456;2024-02-21T02:48:49;1.90;;;1.45;;
16385;SDS011;8302;51.154;4.456;2024-02-21T02:51:17;3.28;;;1.65;;
16385;SDS011;8302;51.154;4.456;2024-02-21T02:53:45;8.50;;;1.95;;
16385;SDS011;8302;51.154;4.456;2024-02-21T02:56:14;7.97;;;1.63;;
16385;SDS011;8302;51.154;4.456;2024-02-21T02:58:43;5.65;;;2.00;;
16385;SDS011;8302;51.154;4.456;2024-02-21T03:01:11;4.78;;;1.65;;
16385;SDS011;8302;51.154;4.456;2024-02-21T03:03:38;2.53;;;1.80;;
16385;SDS011;8302;51.154;4.456;2024-02-21T03:06:05;2.25;;;1.20;;
16385;SDS011;8302;51.154;4.456;2024-02-21T03:08:33;3.42;;;1.45;;
16385;SDS011;8302;51.154;4.456;2024-02-21T03:11:01;3.40;;;1.40;;
16385;SDS011;8302;51.154;4.456;2024-02-21T03:13:29;4.95;;;1.63;;
16385;SDS011;8302;51.154;4.456;2024-02-21T03:15:58;4.25;;;1.88;;
16385;SDS011;8302;51.154;4.456;2024-02-21T03:18:26;1.92;;;1.20;;
16385;SDS011;8302;51.154;4.456;2024-02-21T03:20:54;3.92;;;1.67;;
16385;SDS011;8302;51.154;4.456;2024-02-21T03:23:22;2.40;;;1.15;;
16385;SDS011;8302;51.154;4.456;2024-02-21T03:25:49;2.28;;;1.45;;
16385;SDS011;8302;51.154;4.456;2024-02-21T03:28:17;3.58;;;1.45;;
16385;SDS011;8302;51.154;4.456;2024-02-21T03:30:45;1.92;;;1.42;;
16385;SDS011;8302;51.154;4.456;2024-02-21T03:33:14;2.83;;;1.55;;
16385;SDS011;8302;51.154;4.456;2024-02-21T03:35:42;3.55;;;1.42;;
16385;SDS011;8302;51.154;4.456;2024-02-21T03:38:10;3.90;;;1.42;;
16385;SDS011;8302;51.154;4.456;2024-02-21T03:40:38;1.75;;;1.30;;
16385;SDS011;8302;51.154;4.456;2024-02-21T03:43:05;2.20;;;1.23;;
16385;SDS011;8302;51.154;4.456;2024-02-21T03:45:33;5.55;;;1.27;;
16385;SDS011;8302;51.154;4.456;2024-02-21T03:48:01;2.38;;;1.25;;
16385;SDS011;8302;51.154;4.456;2024-02-21T03:50:30;2.35;;;1.20;;
16385;SDS011;8302;51.154;4.456;2024-02-21T03:52:58;3.60;;;1.55;;
16385;SDS011;8302;51.154;4.456;2024-02-21T03:55:26;7.47;;;1.90;;
16385;SDS011;8302;51.154;4.456;2024-02-21T03:57:54;6.20;;;1.50;;
16385;SDS011;8302;51.154;4.456;2024-02-21T04:00:21;2.97;;;1.20;;
16385;SDS011;8302;51.154;4.456;2024-02-21T04:02:49;2.75;;;1.35;;
16385;SDS011;8302;51.154;4.456;2024-02-21T04:05:17;2.80;;;1.17;;
16385;SDS011;8302;51.154;4.456;2024-02-21T04:07:47;1.67;;;1.23;;
16385;SDS011;8302;51.154;4.456;2024-02-21T04:10:14;3.88;;;1.42;;
16385;SDS011;8302;51.154;4.456;2024-02-21T04:12:42;4.85;;;1.48;;
16385;SDS011;8302;51.154;4.456;2024-02-21T04:15:10;1.75;;;1.30;;
16385;SDS011;8302;51.154;4.456;2024-02-21T04:17:37;1.27;;;1.05;;
16385;SDS011;8302;51.154;4.456;2024-02-21T04:20:05;5.22;;;1.63;;
16385;SDS011;8302;51.154;4.456;2024-02-21T04:22:35;8.63;;;1.92;;
16385;SDS011;8302;51.154;4.456;2024-02-21T04:25:05;3.45;;;1.63;;
16385;SDS011;8302;51.154;4.456;2024-02-21T04:27:33;3.53;;;1.45;;
16385;SDS011;8302;51.154;4.456;2024-02-21T04:30:00;2.45;;;1.23;;
16385;SDS011;8302;51.154;4.456;2024-02-21T04:32:28;1.48;;;1.05;;
16385;SDS011;8302;51.154;4.456;2024-02-21T04:34:56;3.28;;;1.30;;
16385;SDS011;8302;51.154;4.456;2024-02-21T04:37:24;3.25;;;1.52;;
16385;SDS011;8302;51.154;4.456;2024-02-21T04:39:52;4.70;;;1.33;;
16385;SDS011;8302;51.154;4.456;2024-02-21T04:42:21;1.88;;;1.30;;
16385;SDS011;8302;51.154;4.456;2024-02-21T04:44:48;3.00;;;1.50;;
16385;SDS011;8302;51.154;4.456;2024-02-21T04:47:16;3.60;;;1.35;;
16385;SDS011;8302;51.154;4.456;2024-02-21T04:49:44;4.55;;;1.77;;
16385;SDS011;8302;51.154;4.456;2024-02-21T04:52:12;2.53;;;1.52;;
16385;SDS011;8302;51.154;4.456;2024-02-21T04:54:40;5.45;;;1.48;;
16385;SDS011;8302;51.154;4.456;2024-02-21T04:57:08;2.30;;;1.60;;
16385;SDS011;8302;51.154;4.456;2024-02-21T04:59:38;3.38;;;1.60;;
16385;SDS011;8302;51.154;4.456;2024-02-21T05:02:05;3.55;;;1.55;;
16385;SDS011;8302;51.154;4.456;2024-02-21T05:04:35;3.55;;;1.17;;
16385;SDS011;8302;51.154;4.456;2024-02-21T05:07:04;1.95;;;1.25;;
16385;SDS011;8302;51.154;4.456;2024-02-21T05:09:32;5.10;;;1.77;;
16385;SDS011;8302;51.154;4.456;2024-02-21T05:12:00;4.53;;;2.15;;
16385;SDS011;8302;51.154;4.456;2024-02-21T05:14:28;4.38;;;1.42;;
16385;SDS011;8302;51.154;4.456;2024-02-21T05:16:57;4.32;;;1.55;;
16385;SDS011;8302;51.154;4.456;2024-02-21T05:19:24;3.78;;;1.58;;
16385;SDS011;8302;51.154;4.456;2024-02-21T05:21:52;1.67;;;1.10;;
16385;SDS011;8302;51.154;4.456;2024-02-21T05:24:20;2.58;;;1.83;;
16385;SDS011;8302;51.154;4.456;2024-02-21T05:26:48;2.88;;;1.48;;
16385;SDS011;8302;51.154;4.456;2024-02-21T05:29:15;4.72;;;1.40;;
16385;SDS011;8302;51.154;4.456;2024-02-21T05:31:54;2.97;;;1.52;;
16385;SDS011;8302;51.154;4.456;2024-02-21T05:34:23;1.67;;;1.25;;
16385;SDS011;8302;51.154;4.456;2024-02-21T05:36:52;4.47;;;1.30;;
16385;SDS011;8302;51.154;4.456;2024-02-21T05:39:19;4.85;;;1.27;;
16385;SDS011;8302;51.154;4.456;2024-02-21T05:41:49;4.25;;;1.50;;
16385;SDS011;8302;51.154;4.456;2024-02-21T05:44:18;4.50;;;1.33;;
16385;SDS011;8302;51.154;4.456;2024-02-21T05:46:46;4.32;;;1.70;;
16385;SDS011;8302;51.154;4.456;2024-02-21T05:49:13;4.10;;;1.55;;
16385;SDS011;8302;51.154;4.456;2024-02-21T05:51:43;4.35;;;1.52;;
16385;SDS011;8302;51.154;4.456;2024-02-21T05:54:10;4.93;;;1.70;;
16385;SDS011;8302;51.154;4.456;2024-02-21T05:56:38;3.70;;;1.30;;
16385;SDS011;8302;51.154;4.456;2024-02-21T05:59:06;2.92;;;1.42;;
16385;SDS011;8302;51.154;4.456;2024-02-21T06:01:34;5.28;;;1.73;;
16385;SDS011;8302;51.154;4.456;2024-02-21T06:04:01;5.38;;;1.77;;
16385;SDS011;8302;51.154;4.456;2024-02-21T06:06:30;2.28;;;1.38;;
16385;SDS011;8302;51.154;4.456;2024-02-21T06:09:00;3.78;;;1.48;;
16385;SDS011;8302;51.154;4.456;2024-02-21T06:11:29;4.50;;;1.65;;
16385;SDS011;8302;51.154;4.456;2024-02-21T06:13:57;3.97;;;1.40;;
16385;SDS011;8302;51.154;4.456;2024-02-21T06:16:24;3.38;;;1.67;;
16385;SDS011;8302;51.154;4.456;2024-02-21T06:18:52;4.15;;;1.92;;
16385;SDS011;8302;51.154;4.456;2024-02-21T06:21:20;3.80;;;1.58;;
16385;SDS011;8302;51.154;4.456;2024-02-21T06:23:48;2.80;;;1.55;;
16385;SDS011;8302;51.154;4.456;2024-02-21T06:26:17;2.58;;;1.73;;
16385;SDS011;8302;51.154;4.456;2024-02-21T06:28:44;3.17;;;1.77;;
16385;SDS011;8302;51.154;4.456;2024-02-21T06:31:13;4.05;;;1.80;;
16385;SDS011;8302;51.154;4.456;2024-02-21T06:33:42;6.55;;;2.13;;
16385;SDS011;8302;51.154;4.456;2024-02-21T06:36:10;4.40;;;1.80;;
16385;SDS011;8302;51.154;4.456;2024-02-21T06:38:38;3.42;;;2.67;;
16385;SDS011;8302;51.154;4.456;2024-02-21T06:41:06;8.57;;;2.05;;
16385;SDS011;8302;51.154;4.456;2024-02-21T06:43:35;7.40;;;2.60;;
16385;SDS011;8302;51.154;4.456;2024-02-21T06:46:03;5.55;;;2.05;;
16385;SDS011;8302;51.154;4.456;2024-02-21T06:48:31;6.03;;;2.22;;
16385;SDS011;8302;51.154;4.456;2024-02-21T06:50:58;9.90;;;2.75;;
16385;SDS011;8302;51.154;4.456;2024-02-21T06:53:26;6.90;;;2.28;;
16385;SDS011;8302;51.154;4.456;2024-02-21T06:55:54;9.35;;;1.88;;
16385;SDS011;8302;51.154;4.456;2024-02-21T06:58:22;8.32;;;2.38;;
16385;SDS011;8302;51.154;4.456;2024-02-21T07:00:51;8.27;;;1.98;;
16385;SDS011;8302;51.154;4.456;2024-02-21T07:03:18;7.88;;;2.47;;
16385;SDS011;8302;51.154;4.456;2024-02-21T07:05:46;7.40;;;2.78;;
16385;SDS011;8302;51.154;4.456;2024-02-21T07:08:14;6.72;;;3.08;;
16385;SDS011;8302;51.154;4.456;2024-02-21T07:10:42;7.90;;;2.35;;
16385;SDS011;8302;51.154;4.456;2024-02-21T07:13:10;5.70;;;2.22;;
16385;SDS011;8302;51.154;4.456;2024-02-21T07:15:37;6.70;;;2.40;;
16385;SDS011;8302;51.154;4.456;2024-02-21T07:18:06;8.40;;;2.92;;
16385;SDS011;8302;51.154;4.456;2024-02-21T07:20:34;3.67;;;2.78;;
16385;SDS011;8302;51.154;4.456;2024-02-21T07:23:03;7.13;;;2.85;;
16385;SDS011;8302;51.154;4.456;2024-02-21T07:25:31;7.20;;;2.85;;
16385;SDS011;8302;51.154;4.456;2024-02-21T07:27:59;3.20;;;1.98;;
16385;SDS011;8302;51.154;4.456;2024-02-21T07:30:27;4.78;;;2.83;;
16385;SDS011;8302;51.154;4.456;2024-02-21T07:32:55;7.93;;;3.10;;
16385;SDS011;8302;51.154;4.456;2024-02-21T07:35:24;4.78;;;2.30;;
16385;SDS011;8302;51.154;4.456;2024-02-21T07:37:52;5.68;;;2.45;;
16385;SDS011;8302;51.154;4.456;2024-02-21T07:40:19;7.75;;;2.33;;
16385;SDS011;8302;51.154;4.456;2024-02-21T07:42:47;7.93;;;2.58;;
16385;SDS011;8302;51.154;4.456;2024-02-21T07:45:17;8.57;;;2.33;;
16385;SDS011;8302;51.154;4.456;2024-02-21T07:47:48;5.95;;;2.80;;
16385;SDS011;8302;51.154;4.456;2024-02-21T07:50:16;3.58;;;1.70;;
16385;SDS011;8302;51.154;4.456;2024-02-21T07:52:45;7.13;;;2.33;;
16385;SDS011;8302;51.154;4.456;2024-02-21T07:55:13;4.25;;;2.17;;
16385;SDS011;8302;51.154;4.456;2024-02-21T07:57:41;5.28;;;2.75;;
16385;SDS011;8302;51.154;4.456;2024-02-21T08:00:09;8.60;;;2.53;;
16385;SDS011;8302;51.154;4.456;2024-02-21T08:02:41;5.70;;;2.65;;
16385;SDS011;8302;51.154;4.456;2024-02-21T08:05:10;5.13;;;2.45;;
16385;SDS011;8302;51.154;4.456;2024-02-21T08:07:39;5.78;;;2.55;;
16385;SDS011;8302;51.154;4.456;2024-02-21T08:10:08;6.18;;;2.53;;
16385;SDS011;8302;51.154;4.456;2024-02-21T08:12:36;3.33;;;1.98;;
16385;SDS011;8302;51.154;4.456;2024-02-21T08:15:04;5.38;;;1.85;;
16385;SDS011;8302;51.154;4.456;2024-02-21T08:17:34;2.50;;;1.60;;
16385;SDS011;8302;51.154;4.456;2024-02-21T08:20:02;6.03;;;2.53;;
16385;SDS011;8302;51.154;4.456;2024-02-21T08:22:31;5.78;;;2.08;;
16385;SDS011;8302;51.154;4.456;2024-02-21T08:24:59;4.97;;;2.13;;
16385;SDS011;8302;51.154;4.456;2024-02-21T08:27:28;3.80;;;2.38;;
16385;SDS011;8302;51.154;4.456;2024-02-21T08:29:56;3.30;;;2.10;;
16385;SDS011;8302;51.154;4.456;2024-02-21T08:32:23;4.72;;;2.08;;
16385;SDS011;8302;51.154;4.456;2024-02-21T08:34:51;4.55;;;2.58;;
16385;SDS011;8302;51.154;4.456;2024-02-21T08:37:19;7.93;;;1.85;;
16385;SDS011;8302;51.154;4.456;2024-02-21T08:39:47;2.28;;;1.95;;
16385;SDS011;8302;51.154;4.456;2024-02-21T08:42:16;2.88;;;2.33;;
16385;SDS011;8302;51.154;4.456;2024-02-21T08:44:45;7.22;;;2.15;;
16385;SDS011;8302;51.154;4.456;2024-02-21T08:47:12;3.95;;;1.98;;
16385;SDS011;8302;51.154;4.456;2024-02-21T08:49:40;4.65;;;2.10;;
16385;SDS011;8302;51.154;4.456;2024-02-21T08:52:08;5.15;;;2.05;;
16385;SDS011;8302;51.154;4.456;2024-02-21T08:54:36;5.05;;;2.05;;
16385;SDS011;8302;51.154;4.456;2024-02-21T08:57:04;8.32;;;2.40;;
16385;SDS011;8302;51.154;4.456;2024-02-21T08:59:32;2.53;;;1.90;;
16385;SDS011;8302;51.154;4.456;2024-02-21T09:02:02;3.90;;;2.10;;
16385;SDS011;8302;51.154;4.456;2024-02-21T09:04:30;2.83;;;1.92;;
16385;SDS011;8302;51.154;4.456;2024-02-21T09:06:59;5.72;;;2.15;;
16385;SDS011;8302;51.154;4.456;2024-02-21T09:09:27;5.00;;;1.92;;
16385;SDS011;8302;51.154;4.456;2024-02-21T09:11:55;4.90;;;2.28;;
16385;SDS011;8302;51.154;4.456;2024-02-21T09:14:24;2.15;;;1.70;;
16385;SDS011;8302;51.154;4.456;2024-02-21T09:16:51;3.55;;;1.95;;
16385;SDS011;8302;51.154;4.456;2024-02-21T09:19:21;1.85;;;1.48;;
16385;SDS011;8302;51.154;4.456;2024-02-21T09:21:49;4.60;;;1.83;;
16385;SDS011;8302;51.154;4.456;2024-02-21T09:24:17;4.25;;;1.90;;
16385;SDS011;8302;51.154;4.456;2024-02-21T09:26:45;3.95;;;1.95;;
16385;SDS011;8302;51.154;4.456;2024-02-21T09:29:13;2.17;;;1.52;;
16385;SDS011;8302;51.154;4.456;2024-02-21T09:31:42;3.58;;;1.92;;
16385;SDS011;8302;51.154;4.456;2024-02-21T09:34:10;2.72;;;1.63;;
16385;SDS011;8302;51.154;4.456;2024-02-21T09:36:39;2.17;;;1.00;;
16385;SDS011;8302;51.154;4.456;2024-02-21T09:39:07;2.42;;;1.73;;
16385;SDS011;8302;51.154;4.456;2024-02-21T09:41:38;2.65;;;1.58;;
16385;SDS011;8302;51.154;4.456;2024-02-21T09:44:09;2.70;;;1.75;;
16385;SDS011;8302;51.154;4.456;2024-02-21T09:46:39;3.47;;;1.58;;
16385;SDS011;8302;51.154;4.456;2024-02-21T09:49:12;2.70;;;1.38;;
16385;SDS011;8302;51.154;4.456;2024-02-21T09:51:43;2.13;;;1.27;;
16385;SDS011;8302;51.154;4.456;2024-02-21T09:54:12;1.45;;;1.10;;
16385;SDS011;8302;51.154;4.456;2024-02-21T09:56:44;2.20;;;1.50;;
16385;SDS011;8302;51.154;4.456;2024-02-21T09:59:12;2.05;;;1.40;;
16385;SDS011;8302;51.154;4.456;2024-02-21T10:01:41;2.55;;;1.13;;
16385;SDS011;8302;51.154;4.456;2024-02-21T10:04:09;2.30;;;1.42;;
16385;SDS011;8302;51.154;4.456;2024-02-21T10:06:37;1.90;;;1.48;;
16385;SDS011;8302;51.154;4.456;2024-02-21T10:09:07;5.07;;;1.33;;
16385;SDS011;8302;51.154;4.456;2024-02-21T10:11:35;5.32;;;2.00;;
16385;SDS011;8302;51.154;4.456;2024-02-21T10:14:03;2.75;;;1.55;;
16385;SDS011;8302;51.154;4.456;2024-02-21T10:16:32;2.28;;;1.30;;
16385;SDS011;8302;51.154;4.456;2024-02-21T10:19:01;1.75;;;1.13;;
16385;SDS011;8302;51.154;4.456;2024-02-21T10:21:30;1.73;;;1.00;;
16385;SDS011;8302;51.154;4.456;2024-02-21T10:23:58;3.50;;;1.45;;
16385;SDS011;8302;51.154;4.456;2024-02-21T10:26:27;2.47;;;1.73;;
16385;SDS011;8302;51.154;4.456;2024-02-21T10:28:55;2.92;;;1.52;;
16385;SDS011;8302;51.154;4.456;2024-02-21T10:31:24;2.85;;;1.40;;
16385;SDS011;8302;51.154;4.456;2024-02-21T10:33:55;3.97;;;1.83;;
16385;SDS011;8302;51.154;4.456;2024-02-21T10:36:23;1.55;;;1.10;;
16385;SDS011;8302;51.154;4.456;2024-02-21T10:38:52;1.58;;;1.10;;
16385;SDS011;8302;51.154;4.456;2024-02-21T10:41:21;3.00;;;1.48;;
16385;SDS011;8302;51.154;4.456;2024-02-21T10:43:50;3.55;;;1.30;;
16385;SDS011;8302;51.154;4.456;2024-02-21T10:46:20;1.55;;;1.02;;
16385;SDS011;8302;51.154;4.456;2024-02-21T10:48:55;6.05;;;1.10;;
16385;SDS011;8302;51.154;4.456;2024-02-21T10:51:25;3.13;;;1.17;;
16385;SDS011;8302;51.154;4.456;2024-02-21T10:53:57;5.18;;;1.60;;
16385;SDS011;8302;51.154;4.456;2024-02-21T10:56:29;1.35;;;1.05;;
16385;SDS011;8302;51.154;4.456;2024-02-21T10:58:58;1.25;;;0.75;;
16385;SDS011;8302;51.154;4.456;2024-02-21T11:01:28;2.95;;;1.70;;
16385;SDS011;8302;51.154;4.456;2024-02-21T11:03:58;3.10;;;1.42;;
16385;SDS011;8302;51.154;4.456;2024-02-21T11:06:28;1.92;;;1.17;;
16385;SDS011;8302;51.154;4.456;2024-02-21T11:09:00;2.20;;;1.30;;
16385;SDS011;8302;51.154;4.456;2024-02-21T11:11:29;1.30;;;0.82;;
16385;SDS011;8302;51.154;4.456;2024-02-21T11:14:07;2.78;;;1.27;;
16385;SDS011;8302;51.154;4.456;2024-02-21T11:16:35;3.40;;;1.80;;
16385;SDS011;8302;51.154;4.456;2024-02-21T11:19:05;1.95;;;1.20;;
16385;SDS011;8302;51.154;4.456;2024-02-21T11:21:33;2.45;;;1.20;;
16385;SDS011;8302;51.154;4.456;2024-02-21T11:24:02;2.63;;;1.52;;
16385;SDS011;8302;51.154;4.456;2024-02-21T11:26:30;1.83;;;1.45;;
16385;SDS011;8302;51.154;4.456;2024-02-21T11:28:58;2.85;;;1.40;;
16385;SDS011;8302;51.154;4.456;2024-02-21T11:31:37;3.42;;;1.38;;
16385;SDS011;8302;51.154;4.456;2024-02-21T11:34:08;2.95;;;1.50;;
16385;SDS011;8302;51.154;4.456;2024-02-21T11:36:36;2.25;;;1.40;;
16385;SDS011;8302;51.154;4.456;2024-02-21T11:39:04;3.30;;;1.77;;
16385;SDS011;8302;51.154;4.456;2024-02-21T11:41:32;1.95;;;1.17;;
16385;SDS011;8302;51.154;4.456;2024-02-21T11:44:00;2.83;;;1.23;;
16385;SDS011;8302;51.154;4.456;2024-02-21T11:46:29;3.30;;;1.65;;
16385;SDS011;8302;51.154;4.456;2024-02-21T11:48:57;2.08;;;1.38;;
16385;SDS011;8302;51.154;4.456;2024-02-21T11:51:28;2.13;;;1.48;;
16385;SDS011;8302;51.154;4.456;2024-02-21T11:53:56;4.72;;;1.40;;
16385;SDS011;8302;51.154;4.456;2024-02-21T11:56:27;3.63;;;1.73;;
16385;SDS011;8302;51.154;4.456;2024-02-21T11:58:55;4.85;;;1.30;;
16385;SDS011;8302;51.154;4.456;2024-02-21T12:01:26;3.55;;;1.65;;
16385;SDS011;8302;51.154;4.456;2024-02-21T12:03:55;3.92;;;1.73;;
16385;SDS011;8302;51.154;4.456;2024-02-21T12:06:23;2.13;;;1.52;;
16385;SDS011;8302;51.154;4.456;2024-02-21T12:08:51;4.97;;;1.67;;
16385;SDS011;8302;51.154;4.456;2024-02-21T12:11:20;3.38;;;1.95;;
16385;SDS011;8302;51.154;4.456;2024-02-21T12:13:58;2.15;;;1.45;;
16385;SDS011;8302;51.154;4.456;2024-02-21T12:16:27;4.18;;;2.13;;
16385;SDS011;8302;51.154;4.456;2024-02-21T12:18:56;4.82;;;1.63;;
16385;SDS011;8302;51.154;4.456;2024-02-21T12:21:24;4.03;;;1.80;;
16385;SDS011;8302;51.154;4.456;2024-02-21T12:23:54;5.18;;;2.13;;
16385;SDS011;8302;51.154;4.456;2024-02-21T12:26:22;3.10;;;2.00;;
16385;SDS011;8302;51.154;4.456;2024-02-21T12:28:50;3.30;;;2.00;;
16385;SDS011;8302;51.154;4.456;2024-02-21T12:31:18;2.35;;;1.80;;
16385;SDS011;8302;51.154;4.456;2024-02-21T12:33:46;3.58;;;1.50;;
16385;SDS011;8302;51.154;4.456;2024-02-21T12:36:16;3.28;;;1.27;;
16385;SDS011;8302;51.154;4.456;2024-02-21T12:38:44;3.22;;;2.03;;
16385;SDS011;8302;51.154;4.456;2024-02-21T12:41:13;4.72;;;1.38;;
16385;SDS011;8302;51.154;4.456;2024-02-21T12:43:40;1.77;;;1.10;;
16385;SDS011;8302;51.154;4.456;2024-02-21T12:46:08;2.47;;;1.60;;
16385;SDS011;8302;51.154;4.456;2024-02-21T12:48:36;2.67;;;1.42;;
16385;SDS011;8302;51.154;4.456;2024-02-21T12:51:04;1.90;;;1.52;;
16385;SDS011;8302;51.154;4.456;2024-02-21T12:53:33;2.17;;;1.40;;
16385;SDS011;8302;51.154;4.456;2024-02-21T12:56:01;1.77;;;1.10;;
16385;SDS011;8302;51.154;4.456;2024-02-21T12:58:31;3.72;;;1.38;;
16385;SDS011;8302;51.154;4.456;2024-02-21T13:00:59;3.65;;;1.80;;
16385;SDS011;8302;51.154;4.456;2024-02-21T13:03:27;4.47;;;1.80;;
16385;SDS011;8302;51.154;4.456;2024-02-21T13:05:59;4.38;;;1.77;;
16385;SDS011;8302;51.154;4.456;2024-02-21T13:08:27;4.25;;;1.90;;
16385;SDS011;8302;51.154;4.456;2024-02-21T13:10:56;2.53;;;1.67;;
16385;SDS011;8302;51.154;4.456;2024-02-21T13:13:24;2.88;;;1.40;;
16385;SDS011;8302;51.154;4.456;2024-02-21T13:15:52;1.52;;;0.88;;
16385;SDS011;8302;51.154;4.456;2024-02-21T13:18:20;4.72;;;1.35;;
16385;SDS011;8302;51.154;4.456;2024-02-21T13:20:48;2.97;;;1.60;;
16385;SDS011;8302;51.154;4.456;2024-02-21T13:23:15;2.97;;;1.50;;
16385;SDS011;8302;51.154;4.456;2024-02-21T13:25:43;2.55;;;1.73;;
16385;SDS011;8302;51.154;4.456;2024-02-21T13:28:13;5.97;;;1.60;;
16385;SDS011;8302;51.154;4.456;2024-02-21T13:30:42;2.85;;;1.17;;
16385;SDS011;8302;51.154;4.456;2024-02-21T13:33:10;2.13;;;1.23;;
16385;SDS011;8302;51.154;4.456;2024-02-21T13:35:38;2.03;;;1.33;;
16385;SDS011;8302;51.154;4.456;2024-02-21T13:38:06;1.55;;;1.30;;
16385;SDS011;8302;51.154;4.456;2024-02-21T13:40:36;4.45;;;2.10;;
16385;SDS011;8302;51.154;4.456;2024-02-21T13:43:04;1.52;;;1.20;;
16385;SDS011;8302;51.154;4.456;2024-02-21T13:45:37;4.10;;;1.50;;
16385;SDS011;8302;51.154;4.456;2024-02-21T13:48:05;1.85;;;1.17;;
16385;SDS011;8302;51.154;4.456;2024-02-21T13:50:37;4.28;;;1.73;;
16385;SDS011;8302;51.154;4.456;2024-02-21T13:53:09;3.17;;;1.92;;
16385;SDS011;8302;51.154;4.456;2024-02-21T13:55:37;3.33;;;2.05;;
16385;SDS011;8302;51.154;4.456;2024-02-21T13:58:07;1.58;;;1.17;;
16385;SDS011;8302;51.154;4.456;2024-02-21T14:00:35;2.33;;;1.52;;
16385;SDS011;8302;51.154;4.456;2024-02-21T14:03:04;3.15;;;1.58;;
16385;SDS011;8302;51.154;4.456;2024-02-21T14:05:32;3.72;;;2.10;;
16385;SDS011;8302;51.154;4.456;2024-02-21T14:08:00;2.13;;;1.55;;
16385;SDS011;8302;51.154;4.456;2024-02-21T14:10:28;3.15;;;1.70;;
16385;SDS011;8302;51.154;4.456;2024-02-21T14:12:55;3.38;;;1.63;;
16385;SDS011;8302;51.154;4.456;2024-02-21T14:15:23;2.75;;;1.05;;
16385;SDS011;8302;51.154;4.456;2024-02-21T14:17:51;2.90;;;1.48;;
16385;SDS011;8302;51.154;4.456;2024-02-21T14:20:20;2.80;;;1.75;;
16385;SDS011;8302;51.154;4.456;2024-02-21T14:22:48;1.85;;;1.35;;
16385;SDS011;8302;51.154;4.456;2024-02-21T14:25:16;2.38;;;1.60;;
16385;SDS011;8302;51.154;4.456;2024-02-21T14:27:44;3.75;;;2.10;;
16385;SDS011;8302;51.154;4.456;2024-02-21T14:30:12;3.55;;;1.75;;
16385;SDS011;8302;51.154;4.456;2024-02-21T14:32:40;2.90;;;2.00;;
16385;SDS011;8302;51.154;4.456;2024-02-21T14:35:11;3.92;;;1.80;;
16385;SDS011;8302;51.154;4.456;2024-02-21T14:37:40;4.95;;;1.70;;
16385;SDS011;8302;51.154;4.456;2024-02-21T14:40:08;3.05;;;1.35;;
16385;SDS011;8302;51.154;4.456;2024-02-21T14:42:36;1.98;;;1.52;;
16385;SDS011;8302;51.154;4.456;2024-02-21T14:45:04;1.67;;;1.20;;
16385;SDS011;8302;51.154;4.456;2024-02-21T14:47:32;1.40;;;1.30;;
16385;SDS011;8302;51.154;4.456;2024-02-21T14:50:01;2.40;;;1.30;;
16385;SDS011;8302;51.154;4.456;2024-02-21T14:52:31;3.45;;;1.50;;
16385;SDS011;8302;51.154;4.456;2024-02-21T14:55:01;3.85;;;1.52;;
16385;SDS011;8302;51.154;4.456;2024-02-21T14:57:30;2.50;;;1.48;;
16385;SDS011;8302;51.154;4.456;2024-02-21T14:59:58;3.03;;;1.42;;
16385;SDS011;8302;51.154;4.456;2024-02-21T15:02:27;3.35;;;1.48;;
16385;SDS011;8302;51.154;4.456;2024-02-21T15:04:55;1.70;;;1.25;;
16385;SDS011;8302;51.154;4.456;2024-02-21T15:07:23;3.72;;;1.52;;